Time;durP1;ratioP1;P1;durP2;ratioP2;P2;SDS_P1;SDS_P2;PMS_P1;PMS_P2;Temp;Humidity;BMP_temperature;BMP_pressure;BME280_temperature;BME280_humidity;BME280_pressure;Samples;Min_cycle;Max_cycle;Signal;HPM_P1;HPM_P2
2021/12/26 00:01:43;;;;;;;15.87;7.43;;;;;;;;;;5025475;28;20120;-68
2021/12/26 00:04:13;;;;;;;18.37;10.00;;;;;;;;;;5008157;28;20034;-69
2021/12/26 00:06:38;;;;;;;22.50;11.73;;;;;;;;;;5023014;28;20032;-68
2021/12/26 00:09:03;;;;;;;15.40;9.50;;;;;;;;;;5012586;28;20021;-69
2021/12/26 00:11:29;;;;;;;18.83;11.73;;;;;;;;;;5035120;28;20120;-68
2021/12/26 00:13:55;;;;;;;17.80;10.33;;;;;;;;;;5031129;28;20032;-68
2021/12/26 00:16:20;;;;;;;19.40;10.37;;;;;;;;;;5033020;28;20024;-68
2021/12/26 00:18:46;;;;;;;15.80;10.37;;;;;;;;;;5032477;28;20017;-68
2021/12/26 00:21:16;;;;;;;21.03;11.60;;;;;;;;;;5036097;28;20492;-69
2021/12/26 00:23:41;;;;;;;20.17;12.53;;;;;;;;;;5032848;28;20036;-68
2021/12/26 00:26:07;;;;;;;18.77;10.90;;;;;;;;;;5025896;28;20125;-68
2021/12/26 00:28:32;;;;;;;17.13;10.40;;;;;;;;;;5025337;28;20033;-69
2021/12/26 00:30:57;;;;;;;15.83;9.83;;;;;;;;;;5032433;28;20104;-68
2021/12/26 00:33:23;;;;;;;15.13;9.20;;;;;;;;;;5032523;28;20040;-67
2021/12/26 00:35:48;;;;;;;14.20;9.10;;;;;;;;;;5033267;28;20070;-68
2021/12/26 00:38:14;;;;;;;12.73;7.27;;;;;;;;;;5012920;28;20037;-68
2021/12/26 00:40:40;;;;;;;13.00;7.57;;;;;;;;;;5029738;28;20402;-68
2021/12/26 00:43:05;;;;;;;13.00;7.03;;;;;;;;;;5032496;28;20014;-68
2021/12/26 00:45:31;;;;;;;11.07;6.53;;;;;;;;;;5029443;28;20036;-68
2021/12/26 00:47:56;;;;;;;10.97;6.77;;;;;;;;;;5032374;28;20026;-68
2021/12/26 00:50:23;;;;;;;10.97;6.40;;;;;;;;;;5026986;28;20395;-68
2021/12/26 00:52:48;;;;;;;13.00;7.40;;;;;;;;;;5018730;28;20017;-68
2021/12/26 00:55:14;;;;;;;11.20;6.37;;;;;;;;;;5046576;28;20108;-68
2021/12/26 00:57:40;;;;;;;11.00;6.00;;;;;;;;;;5020391;28;20021;-67
2021/12/26 01:00:06;;;;;;;10.13;6.30;;;;;;;;;;5032215;28;20100;-67
2021/12/26 01:02:31;;;;;;;9.33;5.80;;;;;;;;;;5029936;28;20478;-66
2021/12/26 01:04:56;;;;;;;10.37;6.37;;;;;;;;;;5032200;28;20040;-68
2021/12/26 01:07:41;;;;;;;11.77;6.73;;;;;;;;;;5014446;28;20417;-67
2021/12/26 01:10:06;;;;;;;10.63;6.47;;;;;;;;;;5014406;28;20425;-68
2021/12/26 01:12:32;;;;;;;13.33;6.50;;;;;;;;;;5004705;28;20493;-68
2021/12/26 01:15:03;;;;;;;10.57;7.10;;;;;;;;;;5014020;28;20025;-67
2021/12/26 01:17:28;;;;;;;10.27;6.47;;;;;;;;;;5031738;28;20022;-67
2021/12/26 01:19:54;;;;;;;10.83;6.17;;;;;;;;;;5031922;28;20087;-68
2021/12/26 01:22:20;;;;;;;10.40;6.53;;;;;;;;;;5026157;28;20083;-68
2021/12/26 01:24:48;;;;;;;13.10;6.90;;;;;;;;;;5025248;28;20071;-68
2021/12/26 01:27:13;;;;;;;12.37;7.47;;;;;;;;;;5032150;28;20021;-68
2021/12/26 01:29:39;;;;;;;13.40;7.73;;;;;;;;;;5045119;28;20032;-68
2021/12/26 01:32:05;;;;;;;10.90;6.93;;;;;;;;;;5014073;28;20398;-68
2021/12/26 01:34:31;;;;;;;9.80;6.20;;;;;;;;;;5031273;28;20030;-68
2021/12/26 01:36:56;;;;;;;11.27;7.10;;;;;;;;;;5026836;28;20025;-69
2021/12/26 01:39:22;;;;;;;10.90;6.23;;;;;;;;;;5027362;28;20046;-68
2021/12/26 01:41:49;;;;;;;10.90;6.07;;;;;;;;;;5030950;28;20437;-68
2021/12/26 01:44:15;;;;;;;11.57;6.23;;;;;;;;;;5034385;28;20029;-68
2021/12/26 01:46:41;;;;;;;11.60;5.93;;;;;;;;;;5004330;28;20033;-67
2021/12/26 01:49:11;;;;;;;11.07;6.93;;;;;;;;;;5014148;28;20033;-68
2021/12/26 01:51:37;;;;;;;12.00;6.87;;;;;;;;;;5031050;28;20040;-68
2021/12/26 01:54:07;;;;;;;10.07;6.20;;;;;;;;;;5024221;28;20064;-68
2021/12/26 01:56:33;;;;;;;8.67;6.10;;;;;;;;;;5024835;28;20515;-68
2021/12/26 01:58:58;;;;;;;9.43;5.67;;;;;;;;;;5012918;28;20037;-68
2021/12/26 02:01:24;;;;;;;10.67;5.80;;;;;;;;;;5028309;28;20124;-68
2021/12/26 02:03:49;;;;;;;9.03;5.87;;;;;;;;;;5030502;28;20087;-68
2021/12/26 02:06:17;;;;;;;8.90;5.47;;;;;;;;;;5031879;28;20445;-68
2021/12/26 02:08:42;;;;;;;10.50;5.60;;;;;;;;;;5026969;28;20034;-67
2021/12/26 02:11:07;;;;;;;8.60;4.87;;;;;;;;;;5028226;28;20021;-68
2021/12/26 02:13:33;;;;;;;8.43;4.97;;;;;;;;;;5008698;28;20071;-68
2021/12/26 02:15:59;;;;;;;9.23;5.40;;;;;;;;;;5030549;28;20108;-68
2021/12/26 02:18:24;;;;;;;10.87;5.43;;;;;;;;;;5032856;28;20033;-68
2021/12/26 02:21:17;;;;;;;9.00;4.93;;;;;;;;;;5013423;28;20033;-68
2021/12/26 02:23:56;;;;;;;10.17;5.30;;;;;;;;;;5025809;28;20025;-68
2021/12/26 02:29:05;;;;;;;9.27;4.77;;;;;;;;;;5030521;28;20393;-68
2021/12/26 02:31:30;;;;;;;8.90;4.87;;;;;;;;;;5030456;28;20025;-68
2021/12/26 02:33:56;;;;;;;6.63;3.83;;;;;;;;;;5028663;28;20471;-67
2021/12/26 02:36:21;;;;;;;8.53;4.10;;;;;;;;;;5021238;28;20029;-67
2021/12/26 02:38:47;;;;;;;7.37;4.37;;;;;;;;;;5028648;28;20241;-67
2021/12/26 02:41:12;;;;;;;8.47;4.33;;;;;;;;;;5026389;28;20056;-68
2021/12/26 02:43:37;;;;;;;8.80;4.60;;;;;;;;;;5012497;28;20033;-68
2021/12/26 02:46:06;;;;;;;7.50;4.17;;;;;;;;;;5026301;28;20021;-68
2021/12/26 02:48:31;;;;;;;9.37;4.67;;;;;;;;;;5013120;28;20044;-68
2021/12/26 02:50:57;;;;;;;7.03;4.10;;;;;;;;;;5016132;28;20108;-68
2021/12/26 02:53:23;;;;;;;8.63;5.00;;;;;;;;;;5032750;28;20021;-68
2021/12/26 02:55:48;;;;;;;11.63;5.57;;;;;;;;;;5030244;28;20459;-67
2021/12/26 02:58:14;;;;;;;7.83;4.90;;;;;;;;;;5033954;28;20029;-68
2021/12/26 03:00:45;;;;;;;7.53;4.37;;;;;;;;;;5044511;28;20034;-68
2021/12/26 03:03:11;;;;;;;8.30;4.53;;;;;;;;;;5024724;28;20022;-68
2021/12/26 03:05:38;;;;;;;8.47;4.73;;;;;;;;;;5029826;28;20029;-68
2021/12/26 03:08:06;;;;;;;7.80;4.57;;;;;;;;;;5028502;28;20027;-68
2021/12/26 03:10:32;;;;;;;8.40;5.13;;;;;;;;;;5009172;28;20022;-68
2021/12/26 03:12:58;;;;;;;8.20;4.33;;;;;;;;;;5036825;28;20478;-68
2021/12/26 03:15:24;;;;;;;9.90;5.37;;;;;;;;;;5051112;28;20017;-68
2021/12/26 03:17:50;;;;;;;7.90;4.63;;;;;;;;;;5033198;28;20025;-67
2021/12/26 03:20:17;;;;;;;7.97;4.10;;;;;;;;;;5034585;28;20025;-68
2021/12/26 03:22:44;;;;;;;7.40;3.63;;;;;;;;;;5031517;28;20017;-68
2021/12/26 03:25:11;;;;;;;8.57;4.47;;;;;;;;;;5018764;28;20167;-68
2021/12/26 03:27:36;;;;;;;5.90;3.43;;;;;;;;;;5029041;28;20044;-68
2021/12/26 03:30:01;;;;;;;7.80;4.57;;;;;;;;;;5033765;28;20112;-68
2021/12/26 03:32:26;;;;;;;8.87;4.70;;;;;;;;;;5034250;28;20421;-68
2021/12/26 03:34:51;;;;;;;9.87;4.07;;;;;;;;;;5033808;28;20037;-68
2021/12/26 03:37:17;;;;;;;6.70;4.03;;;;;;;;;;5015049;28;20582;-68
2021/12/26 03:39:43;;;;;;;21.90;10.57;;;;;;;;;;5027218;28;20100;-68
2021/12/26 03:42:08;;;;;;;28.33;13.47;;;;;;;;;;5007023;28;20456;-68
2021/12/26 03:44:33;;;;;;;9.57;5.30;;;;;;;;;;5033882;28;20063;-68
2021/12/26 03:46:59;;;;;;;9.23;4.70;;;;;;;;;;5033875;28;20024;-68
2021/12/26 03:49:24;;;;;;;11.03;5.40;;;;;;;;;;5013789;28;20585;-68
2021/12/26 03:51:49;;;;;;;10.30;5.33;;;;;;;;;;5033340;28;20072;-68
2021/12/26 03:54:14;;;;;;;10.40;4.77;;;;;;;;;;5028283;28;20025;-68
2021/12/26 03:56:40;;;;;;;7.53;5.00;;;;;;;;;;5035732;28;20056;-68
2021/12/26 03:59:05;;;;;;;6.93;3.67;;;;;;;;;;5032587;28;20025;-68
2021/12/26 04:01:30;;;;;;;8.13;4.03;;;;;;;;;;5015009;28;20029;-68
2021/12/26 04:03:56;;;;;;;6.80;4.27;;;;;;;;;;5033063;28;20108;-68
2021/12/26 04:06:21;;;;;;;8.63;3.67;;;;;;;;;;5015762;28;20029;-66
2021/12/26 04:08:47;;;;;;;7.67;3.83;;;;;;;;;;5030874;28;20293;-66
2021/12/26 04:11:12;;;;;;;6.17;3.73;;;;;;;;;;5031346;28;20017;-67
2021/12/26 04:13:37;;;;;;;7.57;3.53;;;;;;;;;;5033598;28;20033;-66
2021/12/26 04:16:03;;;;;;;7.70;3.60;;;;;;;;;;5040662;28;20028;-67
2021/12/26 04:18:28;;;;;;;8.03;3.90;;;;;;;;;;5032805;28;20029;-67
2021/12/26 04:20:53;;;;;;;7.63;4.00;;;;;;;;;;5013766;28;20124;-67
2021/12/26 04:23:18;;;;;;;7.67;4.07;;;;;;;;;;5028871;28;20055;-67
2021/12/26 04:25:44;;;;;;;6.87;4.03;;;;;;;;;;5014895;28;20037;-67
2021/12/26 04:28:09;;;;;;;9.10;5.20;;;;;;;;;;5031946;28;20513;-67
2021/12/26 04:30:35;;;;;;;6.73;3.73;;;;;;;;;;5028719;28;20029;-67
2021/12/26 04:33:01;;;;;;;8.90;4.83;;;;;;;;;;5032810;28;20441;-67
2021/12/26 04:35:26;;;;;;;8.90;4.13;;;;;;;;;;5014783;28;20018;-67
2021/12/26 04:37:51;;;;;;;8.07;4.97;;;;;;;;;;5014902;28;20120;-67
2021/12/26 04:40:17;;;;;;;8.33;4.43;;;;;;;;;;5023576;28;20610;-67
2021/12/26 04:42:45;;;;;;;8.30;4.93;;;;;;;;;;5029973;28;20025;-67
2021/12/26 04:45:10;;;;;;;10.27;4.93;;;;;;;;;;5031276;28;20112;-67
2021/12/26 04:47:36;;;;;;;12.93;6.07;;;;;;;;;;5031096;28;20541;-67
2021/12/26 04:50:03;;;;;;;11.30;5.57;;;;;;;;;;5032808;28;20018;-67
2021/12/26 04:52:28;;;;;;;13.97;6.53;;;;;;;;;;5028394;28;20021;-67
2021/12/26 04:54:54;;;;;;;14.73;6.80;;;;;;;;;;5014930;28;20474;-67
2021/12/26 04:57:19;;;;;;;13.57;6.63;;;;;;;;;;5032188;28;20025;-67
2021/12/26 04:59:44;;;;;;;13.63;5.87;;;;;;;;;;5032276;28;20044;-67
2021/12/26 05:02:10;;;;;;;12.10;5.93;;;;;;;;;;5029714;28;20034;-67
2021/12/26 05:04:36;;;;;;;11.13;5.50;;;;;;;;;;5034899;28;20029;-67
2021/12/26 05:07:01;;;;;;;11.50;6.13;;;;;;;;;;5032029;28;20084;-67
2021/12/26 05:09:26;;;;;;;12.80;6.30;;;;;;;;;;5028092;28;20428;-67
2021/12/26 05:11:52;;;;;;;13.37;6.33;;;;;;;;;;5031542;28;20104;-67
2021/12/26 05:14:18;;;;;;;12.73;7.13;;;;;;;;;;5023569;28;20037;-67
2021/12/26 05:16:43;;;;;;;12.77;7.10;;;;;;;;;;5014281;28;20021;-67
2021/12/26 05:19:09;;;;;;;14.50;6.70;;;;;;;;;;5031767;28;20037;-67
2021/12/26 05:21:34;;;;;;;15.40;7.60;;;;;;;;;;5029532;28;20031;-68
2021/12/26 05:23:59;;;;;;;17.93;7.43;;;;;;;;;;5037623;28;20456;-67
2021/12/26 05:26:24;;;;;;;15.50;6.60;;;;;;;;;;5031797;28;20039;-68
2021/12/26 05:28:49;;;;;;;16.63;7.13;;;;;;;;;;5031301;28;20030;-67
2021/12/26 05:31:15;;;;;;;14.03;6.23;;;;;;;;;;4994226;28;20026;-67
2021/12/26 05:33:40;;;;;;;12.63;6.50;;;;;;;;;;5009825;28;20018;-67
2021/12/26 05:36:05;;;;;;;13.60;6.23;;;;;;;;;;5030764;28;20031;-68
2021/12/26 05:38:30;;;;;;;13.90;6.23;;;;;;;;;;5029823;28;20075;-67
2021/12/26 05:40:56;;;;;;;11.63;5.47;;;;;;;;;;5028738;28;20045;-67
2021/12/26 05:43:21;;;;;;;12.37;5.80;;;;;;;;;;5031112;28;20022;-67
2021/12/26 05:45:46;;;;;;;14.53;6.40;;;;;;;;;;5027729;28;20064;-68
2021/12/26 05:48:11;;;;;;;11.77;5.60;;;;;;;;;;5031022;28;20038;-68
2021/12/26 05:50:36;;;;;;;11.57;4.70;;;;;;;;;;5031785;28;20036;-68
2021/12/26 05:53:02;;;;;;;10.23;4.63;;;;;;;;;;5015274;28;20087;-68
2021/12/26 05:55:27;;;;;;;10.50;4.50;;;;;;;;;;5034023;28;20029;-68
2021/12/26 05:57:52;;;;;;;9.37;4.50;;;;;;;;;;5033368;28;20025;-68
2021/12/26 06:00:18;;;;;;;7.77;4.53;;;;;;;;;;5035506;28;20168;-68
2021/12/26 06:02:44;;;;;;;6.17;4.00;;;;;;;;;;5014258;28;20171;-67
2021/12/26 06:05:09;;;;;;;7.73;3.70;;;;;;;;;;5031106;28;20492;-67
2021/12/26 06:07:36;;;;;;;8.23;4.23;;;;;;;;;;5029912;28;20191;-68
2021/12/26 06:10:02;;;;;;;8.03;4.27;;;;;;;;;;5026106;28;20033;-68
2021/12/26 06:12:27;;;;;;;7.83;4.67;;;;;;;;;;5028693;28;20034;-67
2021/12/26 06:14:52;;;;;;;9.23;4.57;;;;;;;;;;5031062;28;20025;-67
2021/12/26 06:17:17;;;;;;;6.60;3.97;;;;;;;;;;5027884;28;20056;-68
2021/12/26 06:19:43;;;;;;;8.23;4.70;;;;;;;;;;5031140;28;20040;-68
2021/12/26 06:22:08;;;;;;;8.00;4.07;;;;;;;;;;5013353;28;20041;-67
2021/12/26 06:24:33;;;;;;;11.83;5.43;;;;;;;;;;5031293;28;20283;-67
2021/12/26 06:26:58;;;;;;;6.77;3.77;;;;;;;;;;5030590;28;20114;-67
2021/12/26 06:29:24;;;;;;;11.53;4.57;;;;;;;;;;5033358;28;20052;-68
2021/12/26 06:31:49;;;;;;;7.83;4.20;;;;;;;;;;5032778;28;20030;-68
2021/12/26 06:34:14;;;;;;;10.17;4.67;;;;;;;;;;5019724;28;20083;-68
2021/12/26 06:36:39;;;;;;;7.40;4.63;;;;;;;;;;5034513;28;20033;-68
2021/12/26 06:39:05;;;;;;;7.53;3.73;;;;;;;;;;5006257;28;20037;-68
2021/12/26 06:41:30;;;;;;;7.67;4.30;;;;;;;;;;5012435;28;20474;-68
2021/12/26 06:43:55;;;;;;;11.20;4.27;;;;;;;;;;5028992;28;20421;-68
2021/12/26 06:46:21;;;;;;;6.73;4.10;;;;;;;;;;5039529;28;20029;-68
2021/12/26 06:48:48;;;;;;;8.30;4.73;;;;;;;;;;5013735;28;20630;-68
2021/12/26 06:51:13;;;;;;;11.27;6.17;;;;;;;;;;5000448;28;20037;-68
2021/12/26 06:53:38;;;;;;;13.20;7.03;;;;;;;;;;5035117;28;20462;-68
2021/12/26 06:56:04;;;;;;;8.53;4.83;;;;;;;;;;5033791;28;20040;-68
2021/12/26 06:58:29;;;;;;;9.33;5.10;;;;;;;;;;5034146;28;20021;-68
2021/12/26 07:00:54;;;;;;;8.80;4.70;;;;;;;;;;5035905;28;20030;-68
2021/12/26 07:03:19;;;;;;;10.40;4.80;;;;;;;;;;5034552;28;20021;-68
2021/12/26 07:05:45;;;;;;;6.23;3.77;;;;;;;;;;5000733;28;20136;-68
2021/12/26 07:08:10;;;;;;;8.23;3.77;;;;;;;;;;5034108;28;20454;-68
2021/12/26 07:10:35;;;;;;;7.30;4.27;;;;;;;;;;5036424;28;20017;-68
2021/12/26 07:13:01;;;;;;;8.47;4.57;;;;;;;;;;5018428;28;20034;-68
2021/12/26 07:15:26;;;;;;;8.00;4.73;;;;;;;;;;5047669;28;20531;-68
2021/12/26 07:17:51;;;;;;;9.93;5.73;;;;;;;;;;5023269;28;20025;-69
2021/12/26 07:20:17;;;;;;;16.47;6.00;;;;;;;;;;5020460;28;20028;-68
2021/12/26 07:22:44;;;;;;;10.40;5.53;;;;;;;;;;5037024;28;20022;-67
2021/12/26 07:25:09;;;;;;;11.47;5.97;;;;;;;;;;5031956;28;20572;-67
2021/12/26 07:27:34;;;;;;;10.00;4.80;;;;;;;;;;5030915;28;20079;-67
2021/12/26 07:30:02;;;;;;;8.10;5.33;;;;;;;;;;5014961;28;20021;-67
2021/12/26 07:32:28;;;;;;;7.40;4.50;;;;;;;;;;5027980;28;20037;-68
2021/12/26 07:34:53;;;;;;;7.70;4.27;;;;;;;;;;5009591;28;20014;-68
2021/12/26 07:37:18;;;;;;;8.67;4.47;;;;;;;;;;5033244;28;20109;-68
2021/12/26 07:39:44;;;;;;;7.00;4.30;;;;;;;;;;5027648;28;20052;-68
2021/12/26 07:42:09;;;;;;;8.73;4.43;;;;;;;;;;5030803;28;20367;-68
2021/12/26 07:44:34;;;;;;;8.17;4.60;;;;;;;;;;5033712;28;20489;-68
2021/12/26 07:47:00;;;;;;;9.67;4.40;;;;;;;;;;5033216;28;20017;-67
2021/12/26 07:49:27;;;;;;;7.80;4.07;;;;;;;;;;5032484;28;20034;-68
2021/12/26 07:51:52;;;;;;;8.90;4.43;;;;;;;;;;5034433;28;20083;-67
2021/12/26 07:54:18;;;;;;;8.13;4.73;;;;;;;;;;5033635;28;20462;-68
2021/12/26 07:56:43;;;;;;;7.40;4.00;;;;;;;;;;5015808;28;20025;-67
2021/12/26 07:59:09;;;;;;;6.27;4.27;;;;;;;;;;5029488;28;20044;-67
2021/12/26 08:01:34;;;;;;;7.63;4.20;;;;;;;;;;5031695;28;20072;-68
2021/12/26 08:04:01;;;;;;;7.93;5.10;;;;;;;;;;5032856;28;20025;-68
2021/12/26 08:06:27;;;;;;;9.00;5.03;;;;;;;;;;5035199;28;20103;-68
2021/12/26 08:08:52;;;;;;;12.20;5.90;;;;;;;;;;5030204;28;20108;-68
2021/12/26 08:11:17;;;;;;;12.30;5.83;;;;;;;;;;5012558;28;20497;-67
2021/12/26 08:13:43;;;;;;;11.00;5.43;;;;;;;;;;5032853;28;20021;-68
2021/12/26 08:16:08;;;;;;;11.97;6.30;;;;;;;;;;5032678;28;20048;-68
2021/12/26 08:18:34;;;;;;;13.60;6.73;;;;;;;;;;5031169;28;20014;-68
2021/12/26 08:20:59;;;;;;;11.03;6.30;;;;;;;;;;5035965;28;20025;-68
2021/12/26 08:23:24;;;;;;;10.80;5.60;;;;;;;;;;5028095;28;20041;-68
2021/12/26 08:25:49;;;;;;;11.50;5.90;;;;;;;;;;5024845;28;20032;-67
2021/12/26 08:28:15;;;;;;;8.60;5.70;;;;;;;;;;5030795;28;20041;-68
2021/12/26 08:30:41;;;;;;;13.97;6.53;;;;;;;;;;5031303;28;20029;-67
2021/12/26 08:33:07;;;;;;;11.67;6.13;;;;;;;;;;5032444;28;20025;-67
2021/12/26 08:35:33;;;;;;;11.37;6.00;;;;;;;;;;5032411;28;20029;-68
2021/12/26 08:37:58;;;;;;;12.90;5.50;;;;;;;;;;5035084;28;20029;-68
2021/12/26 08:40:23;;;;;;;10.67;5.50;;;;;;;;;;5020645;28;20502;-68
2021/12/26 08:42:49;;;;;;;11.97;6.60;;;;;;;;;;5033867;28;20563;-67
2021/12/26 08:45:14;;;;;;;10.20;5.67;;;;;;;;;;5016813;28;20065;-68
2021/12/26 08:47:39;;;;;;;11.10;5.93;;;;;;;;;;5013940;28;20033;-67
2021/12/26 08:50:05;;;;;;;10.37;6.20;;;;;;;;;;5014747;28;20033;-67
2021/12/26 08:52:30;;;;;;;11.70;6.37;;;;;;;;;;5032929;28;20034;-67
2021/12/26 08:54:55;;;;;;;12.40;5.90;;;;;;;;;;5038661;28;20048;-68
2021/12/26 08:57:21;;;;;;;11.07;6.10;;;;;;;;;;5032315;28;20071;-68
2021/12/26 08:59:46;;;;;;;10.37;5.30;;;;;;;;;;5018366;28;20029;-67
2021/12/26 09:02:11;;;;;;;10.40;6.10;;;;;;;;;;5031716;28;20115;-67
2021/12/26 09:04:37;;;;;;;9.67;5.57;;;;;;;;;;5014404;28;20033;-68
2021/12/26 09:07:02;;;;;;;12.60;6.67;;;;;;;;;;5011237;28;20037;-69
2021/12/26 09:09:29;;;;;;;10.90;5.47;;;;;;;;;;5011497;28;20040;-67
2021/12/26 09:11:54;;;;;;;9.30;5.50;;;;;;;;;;5043492;28;20494;-67
2021/12/26 09:14:19;;;;;;;10.30;5.57;;;;;;;;;;5031372;28;20022;-67
2021/12/26 09:16:44;;;;;;;10.10;5.30;;;;;;;;;;5029886;28;20017;-67
2021/12/26 09:19:10;;;;;;;8.40;5.30;;;;;;;;;;5031471;28;20040;-68
2021/12/26 09:21:35;;;;;;;10.53;5.43;;;;;;;;;;5014564;28;20033;-67
2021/12/26 09:24:01;;;;;;;7.27;4.47;;;;;;;;;;5014197;28;20037;-67
2021/12/26 09:26:26;;;;;;;11.23;4.80;;;;;;;;;;5030903;28;20043;-67
2021/12/26 09:28:51;;;;;;;9.00;4.83;;;;;;;;;;5026586;28;20075;-68
2021/12/26 09:31:16;;;;;;;11.27;5.50;;;;;;;;;;5026260;28;20245;-67
2021/12/26 09:33:42;;;;;;;6.60;4.03;;;;;;;;;;5031169;28;20021;-67
2021/12/26 09:36:07;;;;;;;7.93;4.93;;;;;;;;;;5032208;28;20022;-67
2021/12/26 09:38:33;;;;;;;6.57;3.73;;;;;;;;;;5029237;28;20043;-67
2021/12/26 09:40:59;;;;;;;11.50;5.90;;;;;;;;;;5017111;28;20690;-67
2021/12/26 09:43:24;;;;;;;9.83;5.00;;;;;;;;;;5028325;28;20037;-68
2021/12/26 09:45:50;;;;;;;10.67;5.97;;;;;;;;;;5021483;28;20122;-66
2021/12/26 09:48:15;;;;;;;6.30;4.10;;;;;;;;;;5028606;28;20065;-68
2021/12/26 09:50:40;;;;;;;3.60;2.40;;;;;;;;;;5028859;28;20013;-67
2021/12/26 09:53:05;;;;;;;7.00;3.60;;;;;;;;;;5028327;28;20021;-67
2021/12/26 09:55:30;;;;;;;9.17;5.13;;;;;;;;;;5027702;28;20033;-68
2021/12/26 09:57:56;;;;;;;4.10;2.87;;;;;;;;;;5012413;28;20028;-68
2021/12/26 10:00:31;;;;;;;8.97;4.63;;;;;;;;;;5030821;28;20462;-68
2021/12/26 10:03:14;;;;;;;7.60;3.85;;;;;;;;;;5019633;28;20435;-69
2021/12/26 10:05:58;;;;;;;7.43;4.23;;;;;;;;;;5013710;28;20022;-68
2021/12/26 10:08:23;;;;;;;7.43;4.43;;;;;;;;;;5028896;28;20168;-69
2021/12/26 10:11:04;;;;;;;8.40;5.90;;;;;;;;;;5024128;28;20495;-69
2021/12/26 10:13:38;;;;;;;4.67;2.27;;;;;;;;;;5027357;28;20068;-68
2021/12/26 10:16:04;;;;;;;2.97;2.00;;;;;;;;;;5030051;28;20421;-68
2021/12/26 10:18:29;;;;;;;2.90;1.60;;;;;;;;;;5035967;28;20029;-68
2021/12/26 10:20:54;;;;;;;4.87;1.97;;;;;;;;;;5031001;28;20025;-67
2021/12/26 10:23:24;;;;;;;3.30;1.60;;;;;;;;;;5017545;28;20041;-67
2021/12/26 10:25:49;;;;;;;3.73;1.60;;;;;;;;;;5040068;28;20109;-67
2021/12/26 10:28:14;;;;;;;3.95;2.00;;;;;;;;;;5035773;28;20119;-68
2021/12/26 10:30:43;;;;;;;3.72;1.85;;;;;;;;;;5033495;28;20032;-67
2021/12/26 10:33:09;;;;;;;3.33;1.48;;;;;;;;;;5032249;28;20018;-68
2021/12/26 10:35:34;;;;;;;2.92;1.40;;;;;;;;;;5029802;28;20500;-68
2021/12/26 10:37:59;;;;;;;14.27;2.53;;;;;;;;;;5034573;28;20041;-66
2021/12/26 10:40:26;;;;;;;3.80;1.77;;;;;;;;;;5025465;28;20099;-68
2021/12/26 10:42:53;;;;;;;1.90;1.33;;;;;;;;;;5029639;28;20018;-68
2021/12/26 10:45:20;;;;;;;3.20;1.35;;;;;;;;;;5026984;28;20021;-68
2021/12/26 10:47:49;;;;;;;2.20;1.20;;;;;;;;;;5006990;28;20543;-69
2021/12/26 10:50:18;;;;;;;2.00;1.30;;;;;;;;;;5035228;28;20118;-72
2021/12/26 10:52:51;;;;;;;2.53;1.13;;;;;;;;;;5033350;28;20021;-69
2021/12/26 10:55:18;;;;;;;3.05;0.95;;;;;;;;;;5020154;28;20486;-70
2021/12/26 10:57:44;;;;;;;2.67;1.50;;;;;;;;;;5033557;28;20052;-71
2021/12/26 11:00:21;;;;;;;2.25;1.15;;;;;;;;;;5037617;28;20040;-69
2021/12/26 11:02:48;;;;;;;2.95;1.50;;;;;;;;;;5040234;28;20080;-75
2021/12/26 11:05:18;;;;;;;2.65;1.52;;;;;;;;;;5016120;28;20025;-70
2021/12/26 11:07:48;;;;;;;2.88;1.80;;;;;;;;;;5014143;28;20051;-70
2021/12/26 11:10:19;;;;;;;5.18;2.63;;;;;;;;;;5036386;28;20406;-74
2021/12/26 11:12:46;;;;;;;4.00;2.13;;;;;;;;;;5033765;28;20021;-67
2021/12/26 11:15:12;;;;;;;3.50;2.05;;;;;;;;;;5033673;28;20356;-66
2021/12/26 11:17:39;;;;;;;3.28;1.45;;;;;;;;;;5030334;28;20084;-66
2021/12/26 11:20:05;;;;;;;2.60;1.80;;;;;;;;;;5033337;28;20063;-66
2021/12/26 11:22:31;;;;;;;1.30;0.70;;;;;;;;;;5016381;28;20029;-66
2021/12/26 11:24:59;;;;;;;1.98;0.70;;;;;;;;;;5033569;28;20025;-72
2021/12/26 11:27:25;;;;;;;2.08;1.10;;;;;;;;;;5036141;28;20021;-73
2021/12/26 11:29:52;;;;;;;2.00;1.05;;;;;;;;;;5032501;28;20067;-68
2021/12/26 11:32:17;;;;;;;2.33;1.10;;;;;;;;;;5028259;28;20264;-67
2021/12/26 11:34:47;;;;;;;1.65;0.85;;;;;;;;;;5033840;28;20017;-67
2021/12/26 11:37:12;;;;;;;2.15;0.63;;;;;;;;;;5017019;28;20021;-67
2021/12/26 11:39:39;;;;;;;2.45;0.88;;;;;;;;;;5011691;28;20057;-68
2021/12/26 11:42:04;;;;;;;2.20;0.93;;;;;;;;;;5012361;28;20033;-67
2021/12/26 11:44:37;;;;;;;2.08;1.08;;;;;;;;;;5048217;28;20484;-67
2021/12/26 11:47:17;;;;;;;2.33;0.95;;;;;;;;;;5034192;28;20030;-67
2021/12/26 11:50:04;;;;;;;2.27;0.70;;;;;;;;;;5025322;28;20021;-68
2021/12/26 11:52:48;;;;;;;2.27;0.60;;;;;;;;;;5007893;28;20116;-67
2021/12/26 11:55:13;;;;;;;1.97;0.53;;;;;;;;;;5023294;28;20021;-64
2021/12/26 11:57:45;;;;;;;1.90;0.90;;;;;;;;;;5026433;28;20024;-65
2021/12/26 12:00:12;;;;;;;1.37;0.50;;;;;;;;;;5004513;28;20056;-65
2021/12/26 12:02:51;;;;;;;1.57;0.70;;;;;;;;;;5029501;28;20071;-65
2021/12/26 12:05:18;;;;;;;1.57;0.50;;;;;;;;;;5029672;28;20085;-65
2021/12/26 12:07:49;;;;;;;2.03;1.00;;;;;;;;;;5029943;28;20025;-65
2021/12/26 12:10:33;;;;;;;1.95;0.80;;;;;;;;;;5026032;28;20033;-65
2021/12/26 12:12:58;;;;;;;1.45;0.75;;;;;;;;;;5021329;28;20465;-64
2021/12/26 12:15:40;;;;;;;2.15;0.90;;;;;;;;;;4998257;28;20022;-64
2021/12/26 12:18:10;;;;;;;2.00;0.57;;;;;;;;;;5029122;28;20021;-65
2021/12/26 12:20:35;;;;;;;1.97;0.60;;;;;;;;;;5027473;28;20053;-64
2021/12/26 12:23:03;;;;;;;2.53;0.80;;;;;;;;;;5034860;28;20060;-63
2021/12/26 12:25:35;;;;;;;2.87;0.80;;;;;;;;;;5041098;28;20025;-66
2021/12/26 12:28:11;;;;;;;2.07;0.60;;;;;;;;;;5028052;28;20029;-65
2021/12/26 12:30:37;;;;;;;1.17;0.40;;;;;;;;;;5019572;28;20079;-66
2021/12/26 12:33:18;;;;;;;2.20;0.80;;;;;;;;;;5029103;28;20030;-66
2021/12/26 12:35:47;;;;;;;3.93;1.00;;;;;;;;;;5032437;28;20010;-65
2021/12/26 12:38:27;;;;;;;1.37;0.53;;;;;;;;;;5021108;28;20519;-66
2021/12/26 12:40:52;;;;;;;2.23;0.63;;;;;;;;;;5018440;28;20056;-65
2021/12/26 12:43:19;;;;;;;1.37;0.50;;;;;;;;;;5022990;28;20029;-66
2021/12/26 12:45:54;;;;;;;2.80;0.70;;;;;;;;;;5024975;28;20029;-66
2021/12/26 12:48:39;;;;;;;0.95;0.40;;;;;;;;;;5030435;28;20068;-65
2021/12/26 12:51:16;;;;;;;2.72;0.70;;;;;;;;;;5042503;28;20377;-65
2021/12/26 12:53:44;;;;;;;1.40;0.50;;;;;;;;;;5026627;28;20021;-66
2021/12/26 12:56:29;;;;;;;1.60;0.50;;;;;;;;;;5028971;28;20072;-65
2021/12/26 12:59:16;;;;;;;1.05;0.40;;;;;;;;;;5018147;28;20063;-65
2021/12/26 13:01:58;;;;;;;1.17;0.53;;;;;;;;;;5011473;28;20481;-69
2021/12/26 13:04:39;;;;;;;3.50;0.50;;;;;;;;;;5036781;28;20029;-69
2021/12/26 13:07:04;;;;;;;1.43;0.47;;;;;;;;;;5028457;28;20175;-69
2021/12/26 13:09:31;;;;;;;2.43;0.73;;;;;;;;;;5026016;28;20116;-69
2021/12/26 13:12:13;;;;;;;1.93;0.50;;;;;;;;;;5008070;28;20018;-71
2021/12/26 13:14:40;;;;;;;1.03;0.60;;;;;;;;;;5032019;28;20029;-69
2021/12/26 13:17:06;;;;;;;2.73;0.60;;;;;;;;;;5013603;28;20179;-69
2021/12/26 13:19:32;;;;;;;1.73;0.60;;;;;;;;;;5030749;28;20025;-70
2021/12/26 13:21:57;;;;;;;2.07;0.50;;;;;;;;;;5029107;28;20037;-70
2021/12/26 13:24:27;;;;;;;1.37;0.60;;;;;;;;;;5031931;28;20536;-70
2021/12/26 13:26:52;;;;;;;1.63;0.40;;;;;;;;;;5035329;28;20026;-70
2021/12/26 13:29:17;;;;;;;1.77;0.50;;;;;;;;;;5012959;28;20505;-70
2021/12/26 13:31:42;;;;;;;1.67;0.63;;;;;;;;;;5031210;28;20029;-70
2021/12/26 13:34:08;;;;;;;2.17;0.63;;;;;;;;;;5031640;28;20083;-70
2021/12/26 13:36:34;;;;;;;1.37;0.50;;;;;;;;;;5014440;28;20112;-70
2021/12/26 13:39:00;;;;;;;3.13;1.00;;;;;;;;;;5029961;28;20029;-69
2021/12/26 13:41:28;;;;;;;1.20;0.60;;;;;;;;;;5010743;28;20502;-69
2021/12/26 13:43:56;;;;;;;1.97;0.70;;;;;;;;;;5013350;28;20051;-72
2021/12/26 13:46:22;;;;;;;0.90;0.40;;;;;;;;;;4998388;28;20041;-72
2021/12/26 13:48:49;;;;;;;1.80;0.50;;;;;;;;;;5030131;28;20075;-73
2021/12/26 13:51:17;;;;;;;1.47;0.60;;;;;;;;;;5013238;28;20428;-74
2021/12/26 13:53:43;;;;;;;1.80;0.60;;;;;;;;;;5013067;28;20063;-72
2021/12/26 13:56:18;;;;;;;2.60;0.80;;;;;;;;;;5032828;28;20053;-75
2021/12/26 13:58:44;;;;;;;2.10;0.53;;;;;;;;;;4997614;28;20120;-71
2021/12/26 14:01:09;;;;;;;1.37;0.60;;;;;;;;;;5025690;28;20124;-74
2021/12/26 14:03:35;;;;;;;1.17;0.50;;;;;;;;;;5050988;28;20025;-74
2021/12/26 14:06:00;;;;;;;2.77;1.00;;;;;;;;;;5015575;28;20029;-74
2021/12/26 14:08:27;;;;;;;2.20;0.87;;;;;;;;;;5030824;28;20497;-73
2021/12/26 14:11:00;;;;;;;1.83;0.60;;;;;;;;;;5008997;28;20072;-73
2021/12/26 14:13:26;;;;;;;1.70;0.70;;;;;;;;;;5014456;28;20029;-73
2021/12/26 14:15:56;;;;;;;2.10;0.63;;;;;;;;;;5015691;28;20124;-74
2021/12/26 14:18:31;;;;;;;1.70;0.70;;;;;;;;;;5012946;28;20021;-74
2021/12/26 14:20:56;;;;;;;1.93;0.70;;;;;;;;;;5007777;28;20032;-74
2021/12/26 14:23:30;;;;;;;1.53;0.70;;;;;;;;;;5031603;28;20022;-72
2021/12/26 14:25:57;;;;;;;2.33;0.50;;;;;;;;;;5030918;28;20025;-73
2021/12/26 14:28:23;;;;;;;2.53;0.60;;;;;;;;;;5030725;28;20037;-73
2021/12/26 14:30:49;;;;;;;2.43;0.57;;;;;;;;;;5010214;28;20034;-73
2021/12/26 14:33:14;;;;;;;1.07;0.50;;;;;;;;;;5025129;28;20018;-71
2021/12/26 14:35:40;;;;;;;1.07;0.63;;;;;;;;;;5031257;28;20385;-71
2021/12/26 14:38:15;;;;;;;1.73;0.60;;;;;;;;;;5031256;28;20022;-71
2021/12/26 14:40:40;;;;;;;;;;;;;;;;;;5025805;28;20041;-72